Ocean Bluff, Massachusetts
Current Conditions -  °F | °C
As of 1:15 PM on Friday 19 Dec 2014 (Local Time) from KGHG Reporting Station
Broken Clouds Broken Clouds  
Wind Chill: 30°   Ceiling: 3300
Heat Index: 36°   Visibility: 10mi
Dew Point: 25°   Wind: 7mph
Humidity: 65%   Direction: 300°WNW
Pressure: 29.96"   Gusts: NA
Location:  42.1°N, 70.65°W
Report Text: KGHG 191815Z AUTO 30006KT 10SM BKN033 02/M04 A2996 RMK AO2
Loading
Personal Weather Stations






























Interactive Weather Map New forecast layout! Learn more

10-Day Weather Forecast

Advertisements
Track Severe Weather on mobile